San Juan, Puerto Rico

8:28 AM AST on September 28, 2016 (GMT -0400)
HP WEATHER VIEW | | Change Station

Elev 128 ft 18.39 °N, 66.02 °W | Updated 15 seconds ago

Light Rain
Light Rain
87.4 °F
Feels Like 102 °F
N
5.8
Wind Variable Wind from ESE

Today
High -- | Low -- °F
--% Chance of Precip.
Yesterday
High -- | Low -- °F
Precip. -- in
Pressure 30.04 in
Visibility 10.0 miles
Clouds Scattered Clouds 2400 ft
Scattered Clouds 3600 ft
Scattered Clouds 4300 ft
Heat Index 102 °F
Dew Point 79 °F
Humidity 77%
Rainfall 0.00 in
Snow Depth Not available.
6:14 AM 6:14 PM
Waning Crescent, 6% visible
METAR TJSJ 281156Z 09009KT 10SM -RA SCT024 SCT036 SCT043 28/26 A3004 RMK AO2 RAB44 SLP171 P0001 60001 70001 T02830261 10289 20272 53016
Pressure 30.04 in
Visibility 10.0 miles
Clouds Scattered Clouds 2400 ft
Scattered Clouds 3600 ft
Scattered Clouds 4300 ft
Heat Index 102 °F
Dew Point 79 °F
Humidity 77%
Rainfall 0.00 in
Snow Depth Not available.
6:14 AM 6:14 PM
Waning Crescent, 6% visible
METAR TJSJ 281156Z 09009KT 10SM -RA SCT024 SCT036 SCT043 28/26 A3004 RMK AO2 RAB44 SLP171 P0001 60001 70001 T02830261 10289 20272 53016

10-Day Weather Forecast

Almanac

Astronomy

Sep. 28, 2016 Rise Set
Actual Time
Civil Twilight
Nautical Twilight
Astronomical Twilight
Moon
Length of Visible Light
Length of Day
Tomorrow will be .
, % of the Moon is Illuminated

Today's Extremes

Country Highs Country Lows

Community

WunderPhotos

Upload Photos

1,942,236 photos uploaded!

WunderBlog® & News

Nearby

Air Quality

  Air Quality AQ Index Pollutant
Not available.

Snow Depth

Station Depth Elevation

Earthquake Activity

City Distance Mag. Time & Date
Minimum magnitude displayed is 2.5.

Coastal Water Temperatures

Place Temperature

Stations

Nearby Weather Stations

Station Location Temp. Windchill Dew Point Humidity Wind Precip. Elev Updated Type